Time;durP1;ratioP1;P1;durP2;ratioP2;P2;SDS_P1;SDS_P2;PMS_P1;PMS_P2;Temp;Humidity;BMP_temperature;BMP_pressure;BME280_temperature;BME280_humidity;BME280_pressure;Samples;Min_cycle;Max_cycle;Signal;HPM_P1;HPM_P2
2023/04/10 00:01:06;;;;;;;13.52;7.22;;;8.10;82.00;;;;;;6204371;22;89144;-73
2023/04/10 00:03:32;;;;;;;9.82;6.60;;;8.00;81.60;;;;;;6206147;22;89232;-72
2023/04/10 00:05:58;;;;;;;10.60;7.30;;;8.00;82.10;;;;;;6205684;22;87266;-71
2023/04/10 00:08:24;;;;;;;9.75;6.95;;;7.90;81.60;;;;;;6178542;22;90053;-71
2023/04/10 00:10:52;;;;;;;12.88;7.55;;;7.90;83.40;;;;;;6178572;22;91890;-75
2023/04/10 00:13:17;;;;;;;10.73;6.97;;;7.90;82.20;;;;;;6179089;22;91322;-71
2023/04/10 00:15:43;;;;;;;11.10;7.00;;;7.90;82.40;;;;;;6204850;22;87423;-76
2023/04/10 00:18:08;;;;;;;9.50;6.38;;;7.80;81.20;;;;;;6178612;22;90366;-73
2023/04/10 00:20:34;;;;;;;11.90;6.85;;;7.80;80.90;;;;;;6205986;22;88727;-71
2023/04/10 00:23:00;;;;;;;12.00;6.95;;;7.80;80.70;;;;;;6205943;22;87739;-70
2023/04/10 00:25:25;;;;;;;10.05;6.28;;;7.80;80.10;;;;;;6204922;22;88519;-70
2023/04/10 00:27:52;;;;;;;9.50;6.18;;;7.80;79.50;;;;;;6204480;22;88001;-71
2023/04/10 00:30:18;;;;;;;8.70;5.97;;;7.80;79.60;;;;;;6179272;22;91550;-73
2023/04/10 00:32:44;;;;;;;11.10;6.70;;;7.80;79.30;;;;;;6178768;22;90653;-78
2023/04/10 00:35:10;;;;;;;8.23;6.20;;;7.80;79.40;;;;;;6205034;22;87479;-73
2023/04/10 00:37:36;;;;;;;9.00;6.07;;;7.70;79.60;;;;;;6204105;22;87823;-74
2023/04/10 00:40:03;;;;;;;9.57;6.22;;;7.70;79.30;;;;;;6177998;22;91070;-75
2023/04/10 00:42:28;;;;;;;9.43;6.63;;;7.70;79.10;;;;;;6178790;22;91401;-72
2023/04/10 00:44:54;;;;;;;9.98;6.75;;;7.70;78.70;;;;;;6205960;22;87495;-73
2023/04/10 00:47:20;;;;;;;11.15;6.43;;;7.70;78.40;;;;;;6204766;22;87392;-73
2023/04/10 00:49:46;;;;;;;8.95;5.70;;;7.70;78.00;;;;;;6177260;22;92737;-71
2023/04/10 00:52:12;;;;;;;9.65;6.40;;;7.70;78.90;;;;;;6177462;22;92149;-73
2023/04/10 00:54:38;;;;;;;10.68;6.30;;;7.70;78.10;;;;;;6206102;22;87692;-76
2023/04/10 00:57:04;;;;;;;7.78;5.78;;;7.70;78.20;;;;;;6177849;22;94612;-71
2023/04/10 00:59:30;;;;;;;10.23;6.65;;;7.70;78.20;;;;;;6204771;22;89076;-71
2023/04/10 01:01:56;;;;;;;9.60;6.28;;;7.70;78.20;;;;;;6178067;22;90807;-74
2023/04/10 01:04:25;;;;;;;9.85;6.07;;;7.70;78.20;;;;;;6177805;22;87316;-72
2023/04/10 01:06:58;;;;;;;8.35;6.00;;;7.70;78.20;;;;;;6178525;22;90114;-74
2023/04/10 01:09:32;;;;;;;10.35;7.05;;;7.70;78.50;;;;;;6179034;22;92033;-70
2023/04/10 01:12:16;;;;;;;10.65;7.10;;;7.60;78.40;;;;;;6204864;22;87806;-74
2023/04/10 01:14:54;;;;;;;;;;;7.60;78.70;;;;;;6204435;22;88821;-71
2023/04/10 01:17:47;;;;;;;10.52;7.15;;;7.60;78.60;;;;;;6179501;22;89579;-76
2023/04/10 01:20:22;;;;;;;13.48;7.43;;;7.60;78.70;;;;;;6178988;22;89843;-71
2023/04/10 01:23:03;;;;;;;10.43;6.65;;;7.50;79.10;;;;;;6178445;22;89644;-71
2023/04/10 01:25:45;;;;;;;8.55;6.38;;;7.50;78.70;;;;;;6178921;22;87698;-73
2023/04/10 01:28:47;;;;;;;10.23;6.93;;;7.50;78.50;;;;;;6179257;22;90126;-72
2023/04/10 01:31:40;;;;;;;10.55;7.13;;;7.60;78.80;;;;;;6205733;22;88353;-70
2023/04/10 01:34:37;;;;;;;11.60;7.07;;;7.60;78.00;;;;;;6082452;23;88445;-73
2023/04/10 01:37:15;;;;;;;9.82;5.95;;;7.60;78.50;;;;;;5965525;23;87472;-71
2023/04/10 01:39:42;;;;;;;9.48;6.57;;;7.60;78.20;;;;;;5964961;23;90655;-71
2023/04/10 01:42:12;;;;;;;9.02;6.07;;;7.60;78.00;;;;;;5966057;23;91654;-71
2023/04/10 01:44:41;;;;;;;7.85;6.20;;;7.60;78.20;;;;;;5965547;23;92454;-72
2023/04/10 01:47:07;;;;;;;11.02;6.40;;;7.60;78.50;;;;;;5965751;23;87832;-70
2023/04/10 01:49:34;;;;;;;12.13;6.60;;;7.60;78.40;;;;;;5965485;23;87672;-76
2023/04/10 01:52:01;;;;;;;9.90;6.80;;;7.60;78.90;;;;;;5965854;23;90854;-71
2023/04/10 01:54:27;;;;;;;10.00;7.25;;;7.60;79.50;;;;;;5965472;23;87695;-70
2023/04/10 01:56:53;;;;;;;11.52;6.75;;;7.60;79.70;;;;;;5966253;23;87399;-74
2023/04/10 01:59:20;;;;;;;10.40;7.18;;;7.60;79.40;;;;;;5966947;23;89987;-71
2023/04/10 02:01:45;;;;;;;10.63;6.93;;;7.60;80.70;;;;;;5965629;23;91277;-71
2023/04/10 02:04:11;;;;;;;9.20;6.60;;;7.50;81.10;;;;;;5966712;23;88721;-71
2023/04/10 02:06:54;;;;;;;9.80;6.65;;;7.40;81.50;;;;;;5966372;23;88366;-70
2023/04/10 02:09:27;;;;;;;11.02;6.72;;;7.40;81.80;;;;;;5966666;23;95626;-73
2023/04/10 02:12:05;;;;;;;11.15;6.22;;;7.30;80.90;;;;;;6057164;23;87974;-73
2023/04/10 02:14:35;;;;;;;11.32;7.22;;;7.30;81.80;;;;;;6170316;22;88286;-77
2023/04/10 02:17:02;;;;;;;9.27;6.15;;;7.20;81.30;;;;;;6179173;22;87634;-73
2023/04/10 02:19:29;;;;;;;9.90;6.45;;;7.20;80.40;;;;;;6139630;22;89411;-72
2023/04/10 02:21:57;;;;;;;12.48;6.47;;;7.20;80.50;;;;;;6116535;22;92039;-70
2023/04/10 02:24:22;;;;;;;11.98;6.50;;;7.20;80.00;;;;;;6140902;22;87703;-73
2023/04/10 02:26:52;;;;;;;8.65;6.13;;;7.30;79.60;;;;;;6115765;22;88056;-72
2023/04/10 02:29:18;;;;;;;9.20;6.20;;;7.30;79.50;;;;;;6116503;22;90852;-74
2023/04/10 02:31:45;;;;;;;9.88;6.70;;;7.30;79.50;;;;;;6140573;22;88645;-72
2023/04/10 02:34:10;;;;;;;9.70;6.00;;;7.30;80.40;;;;;;6116010;22;91356;-72
2023/04/10 02:36:38;;;;;;;11.15;6.22;;;7.30;79.80;;;;;;6117662;22;87071;-70
2023/04/10 02:39:05;;;;;;;8.60;6.15;;;7.30;79.60;;;;;;6116288;22;93840;-70
2023/04/10 02:41:31;;;;;;;9.38;6.32;;;7.30;79.50;;;;;;6140330;22;89207;-73
2023/04/10 02:43:57;;;;;;;9.48;6.68;;;7.30;79.80;;;;;;6141256;22;88798;-72
2023/04/10 02:46:22;;;;;;;10.27;6.78;;;7.30;79.90;;;;;;6080937;23;87396;-72
2023/04/10 02:48:48;;;;;;;11.82;7.20;;;7.30;80.40;;;;;;6080559;23;87599;-71
2023/04/10 02:51:14;;;;;;;10.85;7.38;;;7.40;80.30;;;;;;6081525;23;91408;-72
2023/04/10 02:53:39;;;;;;;8.55;5.93;;;7.40;80.20;;;;;;6056427;23;90939;-70
2023/04/10 02:56:06;;;;;;;9.68;6.47;;;7.50;79.60;;;;;;6088471;22;88531;-71
2023/04/10 02:58:32;;;;;;;9.68;6.75;;;7.50;79.60;;;;;;6115975;22;90845;-70
2023/04/10 03:00:58;;;;;;;9.18;6.60;;;7.50;78.90;;;;;;6115425;22;91230;-73
2023/04/10 03:03:24;;;;;;;10.07;7.18;;;7.60;79.00;;;;;;6116632;22;90845;-73
2023/04/10 03:05:50;;;;;;;10.13;6.93;;;7.60;78.80;;;;;;6141183;22;87872;-74
2023/04/10 03:08:16;;;;;;;9.55;6.72;;;7.60;78.80;;;;;;6116412;22;90443;-71
2023/04/10 03:10:47;;;;;;;12.73;7.07;;;7.70;78.70;;;;;;6141491;22;88497;-70
2023/04/10 03:13:13;;;;;;;10.82;6.90;;;7.70;79.50;;;;;;6117300;22;90042;-72
2023/04/10 03:15:39;;;;;;;12.70;7.78;;;7.70;79.10;;;;;;6115918;22;87204;-73
2023/04/10 03:18:05;;;;;;;9.95;7.22;;;7.70;78.60;;;;;;6140743;22;87115;-74
2023/04/10 03:20:32;;;;;;;10.10;7.15;;;7.70;77.90;;;;;;6140400;22;88853;-74
2023/04/10 03:22:59;;;;;;;11.98;7.32;;;7.70;78.00;;;;;;6115843;22;92309;-74
2023/04/10 03:25:26;;;;;;;9.20;7.05;;;7.70;79.10;;;;;;6145454;22;87692;-75
2023/04/10 03:27:52;;;;;;;11.77;7.38;;;7.70;78.10;;;;;;6145312;22;90134;-70
2023/04/10 03:30:17;;;;;;;11.15;7.43;;;7.70;77.30;;;;;;6146100;22;91338;-70
2023/04/10 03:32:43;;;;;;;10.23;7.57;;;7.80;77.70;;;;;;6170788;22;87561;-76
2023/04/10 03:35:09;;;;;;;12.18;7.60;;;7.70;77.60;;;;;;6171176;22;87812;-73
2023/04/10 03:37:35;;;;;;;10.90;7.20;;;7.70;77.30;;;;;;6145516;22;90652;-72
2023/04/10 03:40:06;;;;;;;11.80;7.72;;;7.70;77.60;;;;;;6170682;22;88603;-74
2023/04/10 03:42:32;;;;;;;13.07;7.30;;;7.70;78.60;;;;;;6145019;22;92772;-76
2023/04/10 03:44:58;;;;;;;11.27;7.55;;;7.60;78.60;;;;;;6144063;22;88877;-74
2023/04/10 03:47:24;;;;;;;11.73;7.60;;;7.60;78.50;;;;;;6170733;22;90402;-71
2023/04/10 03:49:49;;;;;;;11.00;7.68;;;7.60;79.10;;;;;;6170912;22;91449;-71
2023/04/10 03:52:15;;;;;;;12.50;7.82;;;7.60;78.70;;;;;;6170029;22;87849;-74
2023/04/10 03:54:41;;;;;;;11.02;7.60;;;7.50;78.90;;;;;;6197342;22;87510;-72
2023/04/10 03:57:07;;;;;;;12.38;8.07;;;7.50;78.60;;;;;;6205909;22;87707;-73
2023/04/10 03:59:32;;;;;;;13.15;8.57;;;7.50;79.60;;;;;;6205007;22;88414;-76
2023/04/10 04:01:58;;;;;;;13.60;8.55;;;7.40;79.30;;;;;;6207573;22;87390;-73
2023/04/10 04:04:25;;;;;;;13.50;8.60;;;7.40;79.60;;;;;;6208077;22;88018;-77
2023/04/10 04:06:51;;;;;;;12.52;8.55;;;7.40;79.20;;;;;;6180741;22;90366;-71
2023/04/10 04:09:16;;;;;;;12.98;8.25;;;7.40;78.90;;;;;;6181380;22;91713;-72
2023/04/10 04:11:42;;;;;;;12.55;8.52;;;7.40;79.10;;;;;;6207847;22;89416;-73
2023/04/10 04:14:08;;;;;;;13.45;8.60;;;7.40;78.80;;;;;;6207159;22;87732;-72
2023/04/10 04:16:33;;;;;;;11.00;7.75;;;7.40;79.40;;;;;;6180970;22;89297;-72
2023/04/10 04:18:59;;;;;;;17.13;8.85;;;7.40;79.80;;;;;;6181721;22;91325;-72
2023/04/10 04:21:25;;;;;;;14.27;8.93;;;7.30;80.20;;;;;;6208990;22;87781;-75
2023/04/10 04:23:50;;;;;;;13.95;8.90;;;7.30;80.00;;;;;;6208954;22;87490;-72
2023/04/10 04:26:16;;;;;;;12.43;8.55;;;7.20;79.70;;;;;;6208013;22;88602;-72
2023/04/10 04:28:42;;;;;;;12.32;8.63;;;7.10;79.40;;;;;;6180476;22;91031;-71
2023/04/10 04:31:10;;;;;;;13.50;8.48;;;7.10;79.80;;;;;;6208140;22;87633;-71
2023/04/10 04:33:36;;;;;;;11.77;8.20;;;7.10;80.10;;;;;;6208102;22;87907;-72
2023/04/10 04:36:01;;;;;;;11.57;8.45;;;7.00;80.50;;;;;;6207568;22;87888;-71
2023/04/10 04:38:27;;;;;;;13.38;7.93;;;7.00;80.50;;;;;;6180408;22;89773;-72
2023/04/10 04:40:52;;;;;;;12.82;8.80;;;7.00;80.30;;;;;;6207129;22;88260;-71
2023/04/10 04:43:18;;;;;;;11.93;8.57;;;7.00;80.50;;;;;;6180345;22;87723;-72
2023/04/10 04:45:44;;;;;;;12.48;8.27;;;6.90;80.30;;;;;;6207554;22;87582;-73
2023/04/10 04:48:09;;;;;;;12.05;8.18;;;6.90;80.20;;;;;;6181675;22;91617;-70
2023/04/10 04:50:35;;;;;;;12.60;8.40;;;6.80;80.90;;;;;;6205864;22;87544;-71
2023/04/10 04:53:00;;;;;;;13.25;8.30;;;6.80;81.60;;;;;;6206245;22;87621;-72
2023/04/10 04:55:26;;;;;;;13.00;8.27;;;6.80;82.60;;;;;;6206442;22;87516;-71
2023/04/10 04:57:52;;;;;;;12.77;8.43;;;6.70;81.00;;;;;;6205575;22;89827;-73
2023/04/10 05:00:18;;;;;;;15.88;8.05;;;6.70;81.20;;;;;;6180416;22;92070;-74
2023/04/10 05:02:43;;;;;;;11.80;7.97;;;6.70;81.00;;;;;;6206671;22;87597;-71
2023/04/10 05:05:09;;;;;;;11.50;7.47;;;6.70;81.00;;;;;;6206635;22;87614;-76
2023/04/10 05:07:35;;;;;;;11.35;7.53;;;6.70;80.90;;;;;;6206879;22;88193;-72
2023/04/10 05:10:00;;;;;;;12.77;7.90;;;6.70;81.00;;;;;;6179983;22;89433;-75
2023/04/10 05:12:26;;;;;;;11.95;7.80;;;6.70;80.70;;;;;;6181506;22;87566;-73
2023/04/10 05:14:52;;;;;;;12.02;7.88;;;6.70;81.70;;;;;;6206920;22;87057;-73
2023/04/10 05:17:17;;;;;;;12.63;8.07;;;6.70;80.90;;;;;;6206966;22;88119;-70
2023/04/10 05:19:43;;;;;;;12.15;8.15;;;6.70;81.00;;;;;;6206336;22;87901;-73
2023/04/10 05:22:09;;;;;;;13.20;8.15;;;6.70;80.70;;;;;;6206610;22;88078;-72
2023/04/10 05:24:34;;;;;;;11.98;8.23;;;6.70;81.30;;;;;;6207790;22;87521;-73
2023/04/10 05:27:00;;;;;;;12.00;8.10;;;6.80;80.40;;;;;;6206171;22;88108;-72
2023/04/10 05:29:26;;;;;;;12.52;7.15;;;6.80;80.00;;;;;;6206612;22;88573;-70
2023/04/10 05:31:52;;;;;;;13.65;7.15;;;6.80;79.80;;;;;;6206413;22;87450;-72
2023/04/10 05:34:17;;;;;;;11.88;7.90;;;6.80;79.90;;;;;;6206429;22;87355;-72
2023/04/10 05:36:43;;;;;;;11.73;7.88;;;6.90;80.40;;;;;;6178500;22;90793;-71
2023/04/10 05:39:09;;;;;;;12.63;7.85;;;6.90;80.60;;;;;;6179853;22;90752;-73
2023/04/10 05:41:34;;;;;;;10.82;7.05;;;7.00;80.60;;;;;;6206207;22;88033;-72
2023/04/10 05:44:00;;;;;;;9.68;7.13;;;7.00;79.80;;;;;;6205475;22;87059;-74
2023/04/10 05:46:26;;;;;;;10.35;7.03;;;7.10;80.20;;;;;;6204878;22;89139;-72
2023/04/10 05:48:52;;;;;;;10.25;7.25;;;7.20;78.50;;;;;;6178441;22;90484;-70
2023/04/10 05:51:17;;;;;;;9.20;6.63;;;7.30;78.80;;;;;;6206685;22;87286;-73
2023/04/10 05:53:43;;;;;;;10.15;6.90;;;7.40;78.80;;;;;;6178865;22;89887;-71
2023/04/10 05:56:09;;;;;;;10.90;7.10;;;7.50;78.20;;;;;;6178633;22;89888;-72
2023/04/10 05:58:34;;;;;;;9.98;6.40;;;7.60;78.30;;;;;;6206317;22;88338;-73
2023/04/10 06:01:00;;;;;;;10.05;6.70;;;7.70;77.30;;;;;;6201081;22;87228;-72
2023/04/10 06:03:26;;;;;;;10.93;6.97;;;7.80;76.40;;;;;;6179580;22;91197;-73
2023/04/10 06:05:52;;;;;;;10.57;7.05;;;7.90;76.50;;;;;;6204594;22;88254;-73
2023/04/10 06:08:18;;;;;;;11.15;6.90;;;8.00;76.60;;;;;;6178371;22;90844;-72
2023/04/10 06:10:45;;;;;;;9.10;6.43;;;8.10;76.30;;;;;;6204946;22;88450;-73
2023/04/10 06:13:11;;;;;;;11.43;6.63;;;8.20;75.70;;;;;;6178691;22;90409;-74
2023/04/10 06:15:37;;;;;;;9.70;6.57;;;8.30;74.20;;;;;;6207081;22;88502;-76
2023/04/10 06:18:02;;;;;;;10.02;6.22;;;8.40;75.00;;;;;;6205379;22;87985;-72
2023/04/10 06:20:28;;;;;;;12.57;6.65;;;8.50;73.30;;;;;;6179234;22;87685;-72
2023/04/10 06:22:54;;;;;;;11.88;7.00;;;8.60;74.30;;;;;;6206477;22;87480;-71
2023/04/10 06:25:19;;;;;;;10.00;7.05;;;8.70;74.00;;;;;;6205531;22;88496;-73
2023/04/10 06:27:45;;;;;;;12.18;6.97;;;8.80;72.00;;;;;;6206085;22;88224;-72
2023/04/10 06:30:11;;;;;;;9.52;6.75;;;8.90;72.60;;;;;;6180063;22;87611;-72
2023/04/10 06:32:36;;;;;;;13.65;7.00;;;9.00;71.90;;;;;;6206762;22;87859;-76
2023/04/10 06:35:02;;;;;;;10.60;7.45;;;9.00;70.80;;;;;;6204516;22;89162;-76
2023/04/10 06:37:32;;;;;;;10.68;6.95;;;9.10;72.50;;;;;;6177986;22;91445;-72
2023/04/10 06:40:08;;;;;;;11.75;7.57;;;9.20;71.50;;;;;;6177191;22;87575;-72
2023/04/10 06:42:35;;;;;;;10.55;7.45;;;9.30;72.20;;;;;;6203305;22;87710;-72
2023/04/10 06:45:01;;;;;;;11.07;7.43;;;9.40;70.50;;;;;;6177128;22;91213;-73
2023/04/10 06:47:27;;;;;;;12.85;7.53;;;9.50;71.50;;;;;;6204034;22;87746;-73
2023/04/10 06:49:53;;;;;;;9.93;7.13;;;9.60;72.50;;;;;;6177330;22;87571;-74
2023/04/10 06:52:19;;;;;;;11.60;7.32;;;9.70;72.00;;;;;;6170067;22;90824;-72
2023/04/10 06:54:45;;;;;;;10.73;7.90;;;9.80;71.30;;;;;;6171457;22;90916;-72
2023/04/10 06:57:10;;;;;;;9.98;6.90;;;9.90;69.90;;;;;;6205845;22;89777;-76
2023/04/10 06:59:36;;;;;;;9.07;6.57;;;10.00;69.70;;;;;;6178774;22;89158;-72
2023/04/10 07:02:04;;;;;;;10.88;7.50;;;10.10;72.30;;;;;;6181681;22;90271;-72
2023/04/10 07:04:31;;;;;;;13.60;7.25;;;10.20;70.10;;;;;;6137160;22;90844;-71
2023/04/10 07:06:57;;;;;;;10.07;7.20;;;10.20;70.00;;;;;;6146076;22;90816;-73
2023/04/10 07:09:25;;;;;;;16.10;7.57;;;10.30;69.40;;;;;;6143335;22;87839;-72
2023/04/10 07:11:51;;;;;;;9.82;7.00;;;10.40;71.30;;;;;;6145543;22;88577;-74
2023/04/10 07:14:17;;;;;;;8.93;6.68;;;10.50;70.20;;;;;;6139590;22;91799;-74
2023/04/10 07:16:42;;;;;;;9.73;7.10;;;10.50;68.80;;;;;;6140969;22;87062;-73
2023/04/10 07:19:08;;;;;;;13.32;7.43;;;10.60;68.10;;;;;;6143410;22;87603;-72
2023/04/10 07:21:34;;;;;;;12.88;7.32;;;10.70;68.70;;;;;;6140993;22;90085;-73
2023/04/10 07:23:59;;;;;;;11.40;6.90;;;10.70;69.50;;;;;;6140150;22;88721;-72
2023/04/10 07:26:25;;;;;;;11.45;6.72;;;10.80;67.60;;;;;;6140016;22;92247;-72
2023/04/10 07:28:50;;;;;;;10.50;6.72;;;10.80;67.90;;;;;;6143213;22;87018;-72
2023/04/10 07:31:19;;;;;;;11.32;7.18;;;10.90;67.80;;;;;;6143668;22;87920;-71
2023/04/10 07:33:48;;;;;;;11.50;7.78;;;10.90;67.80;;;;;;6142913;22;88077;-72
2023/04/10 07:36:14;;;;;;;9.98;6.53;;;11.00;67.20;;;;;;6144509;22;87929;-72
2023/04/10 07:38:41;;;;;;;12.48;6.72;;;11.10;67.20;;;;;;6144237;22;87971;-71
2023/04/10 07:41:06;;;;;;;9.73;6.75;;;11.20;67.60;;;;;;6142200;22;90871;-72
2023/04/10 07:43:33;;;;;;;8.25;6.40;;;11.20;67.90;;;;;;6143895;22;89227;-72
2023/04/10 07:45:59;;;;;;;12.15;6.60;;;11.30;67.90;;;;;;6143552;22;87585;-71
2023/04/10 07:48:24;;;;;;;14.30;6.97;;;11.40;66.10;;;;;;6143883;22;88245;-72
2023/04/10 07:50:50;;;;;;;9.27;6.82;;;11.50;67.30;;;;;;6143073;22;87540;-73
2023/04/10 07:53:16;;;;;;;12.23;7.15;;;11.60;67.00;;;;;;6144518;22;88218;-75
2023/04/10 07:55:44;;;;;;;9.55;6.85;;;11.70;66.90;;;;;;6145931;22;87973;-72
2023/04/10 07:58:10;;;;;;;9.57;6.57;;;11.80;66.50;;;;;;6146422;22;87716;-72
2023/04/10 08:00:36;;;;;;;8.73;6.32;;;12.00;66.20;;;;;;6148719;22;87894;-72
2023/04/10 08:03:04;;;;;;;8.60;6.32;;;12.10;67.50;;;;;;6148021;22;88004;-75
2023/04/10 08:05:31;;;;;;;9.43;6.93;;;12.30;66.80;;;;;;6167218;22;92366;-75
2023/04/10 08:07:57;;;;;;;9.45;6.88;;;12.40;65.70;;;;;;6163816;22;87946;-74
2023/04/10 08:10:23;;;;;;;9.15;6.95;;;12.50;63.70;;;;;;6172717;22;90906;-77
2023/04/10 08:12:48;;;;;;;11.80;6.90;;;12.50;65.70;;;;;;6169955;22;90860;-73
2023/04/10 08:15:14;;;;;;;8.85;6.88;;;12.70;64.90;;;;;;6173172;22;92380;-71
2023/04/10 08:17:40;;;;;;;9.10;6.80;;;12.80;64.20;;;;;;6173869;22;87559;-73
2023/04/10 08:20:06;;;;;;;8.50;6.68;;;12.80;63.00;;;;;;6172754;22;87146;-72
2023/04/10 08:22:32;;;;;;;11.98;7.53;;;12.80;63.00;;;;;;6172606;22;88335;-76
2023/04/10 08:24:57;;;;;;;9.25;6.55;;;12.90;63.60;;;;;;6172336;22;88832;-71
2023/04/10 08:27:23;;;;;;;8.85;6.65;;;12.90;62.70;;;;;;6173693;22;87428;-71
2023/04/10 08:29:49;;;;;;;12.85;6.85;;;13.00;65.10;;;;;;6173212;22;87807;-71
2023/04/10 08:32:15;;;;;;;8.43;6.20;;;13.00;62.80;;;;;;6172859;22;87854;-72
2023/04/10 08:34:41;;;;;;;13.68;7.00;;;13.00;62.60;;;;;;6172950;22;87980;-73
2023/04/10 08:37:08;;;;;;;11.30;6.68;;;13.10;62.60;;;;;;6170156;22;88738;-73
2023/04/10 08:39:38;;;;;;;8.43;6.50;;;13.20;62.30;;;;;;6172829;22;87097;-73
2023/04/10 08:42:05;;;;;;;10.38;6.10;;;13.20;61.90;;;;;;6170555;22;90957;-77
2023/04/10 08:44:32;;;;;;;7.10;5.70;;;13.30;61.80;;;;;;6171361;22;91090;-73
2023/04/10 08:46:59;;;;;;;10.32;6.30;;;13.40;62.30;;;;;;6171335;22;87580;-72
2023/04/10 08:49:33;;;;;;;7.75;6.05;;;13.40;60.60;;;;;;6173574;22;87856;-76
2023/04/10 08:52:03;;;;;;;8.65;5.72;;;13.50;63.50;;;;;;6171061;22;91266;-72
2023/04/10 08:54:32;;;;;;;8.20;6.05;;;13.70;61.80;;;;;;6176981;22;87454;-71
2023/04/10 08:57:00;;;;;;;8.77;6.25;;;13.70;62.10;;;;;;6172359;22;88040;-71
2023/04/10 08:59:30;;;;;;;7.93;6.07;;;13.80;61.50;;;;;;6173301;22;87576;-75
2023/04/10 09:01:56;;;;;;;11.32;5.97;;;13.80;60.50;;;;;;6170587;22;91417;-73
2023/04/10 09:04:23;;;;;;;9.18;5.40;;;13.80;61.00;;;;;;6170878;22;91930;-72
2023/04/10 09:06:49;;;;;;;6.85;5.55;;;13.80;61.70;;;;;;6171947;22;87880;-71
2023/04/10 09:09:15;;;;;;;8.57;6.28;;;13.90;61.20;;;;;;6169781;22;87690;-71
2023/04/10 09:11:55;;;;;;;7.30;5.78;;;14.00;60.70;;;;;;6169906;22;91252;-71
2023/04/10 09:14:29;;;;;;;8.15;5.57;;;14.20;59.70;;;;;;6169910;22;91118;-76
2023/04/10 09:17:11;;;;;;;9.18;5.88;;;14.30;60.60;;;;;;6172996;22;87830;-72
2023/04/10 09:19:36;;;;;;;7.57;5.82;;;14.50;60.80;;;;;;6171842;22;87031;-72
2023/04/10 09:22:02;;;;;;;8.23;5.68;;;14.70;59.40;;;;;;6170037;22;88289;-72
2023/04/10 09:24:28;;;;;;;7.78;5.20;;;14.80;59.30;;;;;;6173463;22;88457;-75
2023/04/10 09:26:54;;;;;;;6.72;5.18;;;14.80;56.80;;;;;;6171030;22;88640;-75
2023/04/10 09:29:20;;;;;;;7.18;5.05;;;14.80;58.70;;;;;;6170363;22;90168;-77
2023/04/10 09:31:46;;;;;;;7.53;4.78;;;14.80;57.60;;;;;;6170473;22;87696;-73
2023/04/10 09:34:22;;;;;;;7.30;5.38;;;14.70;57.30;;;;;;6170689;22;87317;-76
2023/04/10 09:37:00;;;;;;;6.55;5.10;;;14.60;59.20;;;;;;6173735;22;87601;-72
2023/04/10 09:39:34;;;;;;;6.28;4.82;;;14.70;59.90;;;;;;6171774;22;87583;-73
2023/04/10 09:42:00;;;;;;;6.60;5.45;;;14.80;58.50;;;;;;6173060;22;91514;-77
2023/04/10 09:44:34;;;;;;;5.95;5.13;;;14.70;58.90;;;;;;6177797;22;87374;-72
2023/04/10 09:47:21;;;;;;;8.05;4.80;;;14.70;59.00;;;;;;6173146;22;87691;-75
2023/04/10 09:49:54;;;;;;;7.00;4.90;;;14.70;58.60;;;;;;6172843;22;87854;-77
2023/04/10 09:52:25;;;;;;;6.72;4.43;;;14.70;57.60;;;;;;6170998;22;92101;-71
2023/04/10 09:55:05;;;;;;;9.57;5.20;;;14.70;60.80;;;;;;6171989;22;92112;-72
2023/04/10 09:57:32;;;;;;;6.53;5.00;;;14.70;59.90;;;;;;6173773;22;87881;-74
2023/04/10 10:00:07;;;;;;;6.07;4.95;;;14.80;59.70;;;;;;6171782;22;90712;-74
2023/04/10 10:02:37;;;;;;;9.10;5.55;;;14.90;59.40;;;;;;6173960;22;88035;-72
2023/04/10 10:05:04;;;;;;;6.97;5.50;;;15.00;59.00;;;;;;6188573;22;87443;-74
2023/04/10 10:07:31;;;;;;;7.60;4.95;;;15.10;58.70;;;;;;6204779;22;87768;-72
2023/04/10 10:09:57;;;;;;;5.75;4.93;;;15.30;57.90;;;;;;6204353;22;88165;-71
2023/04/10 10:12:25;;;;;;;7.38;5.05;;;15.40;57.80;;;;;;6169422;22;89206;-76
2023/04/10 10:15:00;;;;;;;8.73;5.70;;;15.50;57.20;;;;;;6170595;22;88037;-72
2023/04/10 10:17:33;;;;;;;6.72;5.43;;;15.60;58.30;;;;;;6170749;22;88329;-75
2023/04/10 10:20:06;;;;;;;8.43;5.65;;;15.60;58.30;;;;;;6170598;22;87549;-76
2023/04/10 10:22:35;;;;;;;7.27;5.27;;;15.80;57.80;;;;;;6145287;22;92653;-74
2023/04/10 10:25:02;;;;;;;6.55;5.15;;;16.00;58.00;;;;;;6144923;22;91694;-73
2023/04/10 10:27:33;;;;;;;8.52;5.40;;;16.10;57.60;;;;;;6145878;22;87761;-73
2023/04/10 10:29:59;;;;;;;8.98;5.25;;;16.30;57.80;;;;;;6146031;22;90874;-72
2023/04/10 10:32:26;;;;;;;7.30;4.85;;;16.40;56.70;;;;;;6144923;22;90488;-72
2023/04/10 10:34:52;;;;;;;5.70;4.75;;;16.40;56.10;;;;;;6146003;22;91225;-74
2023/04/10 10:37:21;;;;;;;5.40;4.65;;;16.50;58.10;;;;;;6144886;22;87514;-73
2023/04/10 10:40:01;;;;;;;4.43;3.83;;;16.70;57.20;;;;;;6169821;22;87667;-74
2023/04/10 10:42:45;;;;;;;5.03;3.97;;;16.80;54.80;;;;;;6175326;22;89819;-73
2023/04/10 10:45:18;;;;;;;4.20;3.80;;;16.80;54.00;;;;;;6178330;22;97138;-71
2023/04/10 10:47:49;;;;;;;5.15;4.03;;;16.80;54.60;;;;;;6204816;22;87739;-75
2023/04/10 10:50:15;;;;;;;7.63;4.07;;;17.00;53.10;;;;;;6177051;22;90473;-74
2023/04/10 10:52:43;;;;;;;4.93;3.60;;;17.00;55.60;;;;;;6204241;22;88095;-74
2023/04/10 10:55:21;;;;;;;4.60;3.70;;;17.20;52.60;;;;;;6203851;22;88979;-75
2023/04/10 10:57:50;;;;;;;6.40;3.75;;;17.30;54.00;;;;;;6204821;22;87648;-73
2023/04/10 11:00:16;;;;;;;4.20;3.42;;;17.50;53.30;;;;;;6179111;22;90142;-73
2023/04/10 11:02:42;;;;;;;5.40;3.40;;;17.70;53.10;;;;;;6176834;22;91408;-73
2023/04/10 11:05:07;;;;;;;4.22;3.50;;;17.90;53.50;;;;;;6203212;22;87258;-74
2023/04/10 11:07:58;;;;;;;3.85;3.38;;;18.10;52.60;;;;;;6200630;22;88742;-73
2023/04/10 11:10:58;;;;;;;5.10;2.72;;;18.20;51.50;;;;;;6202814;22;87484;-71
2023/04/10 11:13:24;;;;;;;3.42;2.90;;;18.20;52.10;;;;;;6175290;22;91252;-76
2023/04/10 11:15:51;;;;;;;3.42;3.10;;;18.20;52.00;;;;;;6175589;22;91415;-74
2023/04/10 11:18:17;;;;;;;3.72;2.90;;;18.20;50.80;;;;;;6177733;22;87851;-74
2023/04/10 11:21:15;;;;;;;4.70;3.10;;;18.20;52.40;;;;;;6203650;22;87754;-71
2023/04/10 11:23:50;;;;;;;2.90;2.63;;;18.40;50.70;;;;;;6079401;23;87158;-75
2023/04/10 11:26:34;;;;;;;3.78;2.75;;;18.40;50.90;;;;;;6076238;23;91297;-76
2023/04/10 11:29:03;;;;;;;3.38;2.22;;;18.50;50.20;;;;;;6082767;23;88258;-76
2023/04/10 11:31:30;;;;;;;3.20;2.38;;;18.80;50.90;;;;;;6080187;23;90029;-77
2023/04/10 11:33:56;;;;;;;4.40;2.67;;;19.00;51.70;;;;;;6054741;23;92626;-76
2023/04/10 11:36:22;;;;;;;5.93;2.60;;;19.10;49.60;;;;;;6082913;23;90337;-78
2023/04/10 11:38:57;;;;;;;3.65;2.63;;;19.10;48.30;;;;;;6028454;23;87796;-75
2023/04/10 11:41:30;;;;;;;3.10;2.50;;;19.00;49.10;;;;;;6024029;23;91152;-76
2023/04/10 11:44:00;;;;;;;2.92;2.60;;;18.80;49.10;;;;;;5998313;23;91757;-76
2023/04/10 11:46:27;;;;;;;4.60;2.40;;;18.80;50.70;;;;;;6030000;23;87809;-74
2023/04/10 11:49:00;;;;;;;3.00;2.22;;;18.70;49.20;;;;;;6027647;23;87693;-76
2023/04/10 11:51:27;;;;;;;2.53;2.33;;;18.60;49.40;;;;;;6022661;23;87165;-75
2023/04/10 11:54:11;;;;;;;2.47;2.28;;;18.70;50.70;;;;;;6025099;23;92082;-76
2023/04/10 11:56:39;;;;;;;2.22;2.00;;;18.80;49.20;;;;;;6023495;23;91388;-76
2023/04/10 11:59:09;;;;;;;4.45;2.40;;;18.80;50.10;;;;;;6010084;22;88514;-75
2023/04/10 12:01:36;;;;;;;1.88;1.73;;;18.70;51.50;;;;;;6118481;22;90315;-75
2023/04/10 12:04:02;;;;;;;2.53;2.10;;;18.60;49.00;;;;;;6113870;22;91094;-76
2023/04/10 12:06:28;;;;;;;3.58;2.45;;;18.60;48.90;;;;;;6115990;22;91383;-75
2023/04/10 12:08:54;;;;;;;3.20;2.50;;;18.70;50.80;;;;;;6121287;22;87332;-76
2023/04/10 12:11:24;;;;;;;2.35;2.15;;;18.60;49.60;;;;;;6204030;22;87762;-75
2023/04/10 12:13:54;;;;;;;3.03;1.92;;;18.60;49.10;;;;;;6181410;22;90717;-76
2023/04/10 12:16:20;;;;;;;2.60;2.40;;;18.60;49.30;;;;;;6181124;22;91042;-76
2023/04/10 12:18:47;;;;;;;3.03;2.13;;;18.70;49.40;;;;;;6179394;22;87619;-76
2023/04/10 12:21:13;;;;;;;2.55;2.08;;;18.90;49.20;;;;;;6205975;22;88544;-76
2023/04/10 12:23:39;;;;;;;4.55;1.95;;;19.20;50.10;;;;;;6180560;22;92138;-77
2023/04/10 12:26:17;;;;;;;6.70;2.00;;;19.40;47.20;;;;;;6207133;22;87747;-76
2023/04/10 12:28:53;;;;;;;2.95;2.08;;;19.30;47.80;;;;;;6185809;22;87399;-73
2023/04/10 12:31:33;;;;;;;2.72;1.83;;;19.20;47.80;;;;;;6188879;22;90294;-72
2023/04/10 12:34:00;;;;;;;2.00;1.80;;;18.90;49.20;;;;;;6191321;22;91127;-75
2023/04/10 12:36:30;;;;;;;2.00;1.80;;;19.00;49.00;;;;;;6186040;22;91908;-73
2023/04/10 12:38:58;;;;;;;1.73;1.63;;;19.20;50.30;;;;;;6184981;22;87327;-76
2023/04/10 12:41:34;;;;;;;3.47;2.00;;;19.10;47.20;;;;;;6150942;22;89063;-73
2023/04/10 12:44:11;;;;;;;3.42;2.35;;;19.00;49.10;;;;;;6122751;22;91082;-75
2023/04/10 12:46:37;;;;;;;3.17;1.90;;;19.10;49.80;;;;;;6120149;22;89867;-75
2023/04/10 12:49:20;;;;;;;2.17;1.90;;;19.10;48.20;;;;;;6121728;22;88839;-76
2023/04/10 12:51:50;;;;;;;2.30;1.80;;;19.00;49.20;;;;;;6147865;22;87623;-78
2023/04/10 12:54:45;;;;;;;2.75;2.50;;;18.70;48.70;;;;;;6123869;22;89078;-75